Time;durP1;ratioP1;P1;durP2;ratioP2;P2;SDS_P1;SDS_P2;PMS_P1;PMS_P2;Temp;Humidity;BMP_temperature;BMP_pressure;BME280_temperature;BME280_humidity;BME280_pressure;Samples;Min_cycle;Max_cycle;Signal;HPM_P1;HPM_P2
2024/03/10 00:00:41;;;;;;;;;;;;;;;6.09;100.00;97524.03;4984696;28;19928;-85
2024/03/10 00:03:06;;;;;;;;;;;;;;;6.05;100.00;97522.50;4967060;28;19925;-84
2024/03/10 00:05:43;;;;;;;;;;;;;;;6.02;100.00;97528.81;4985606;28;19922;-85
2024/03/10 00:08:08;;;;;;;;;;;;;;;6.08;100.00;97536.34;4982831;28;20388;-88
2024/03/10 00:10:37;;;;;;;;;;;;;;;6.10;100.00;97531.81;4982238;28;19926;-85
2024/03/10 00:13:03;;;;;;;;;;;;;;;6.08;100.00;97527.59;4983836;28;19925;-84
2024/03/10 00:15:30;;;;;;;;;;;;;;;6.07;100.00;97528.53;4984221;28;20301;-87
2024/03/10 00:17:55;;;;;;;;;;;;;;;6.00;100.00;97528.91;4966018;28;20038;-85
2024/03/10 00:20:20;;;;;;;;;;;;;;;5.98;100.00;97528.16;4965425;28;19970;-89
2024/03/10 00:22:47;;;;;;;;;;;;;;;6.00;100.00;97535.94;4967730;28;19926;-88
2024/03/10 00:25:13;;;;;;;;;;;;;;;5.98;100.00;97519.41;4964810;28;20385;-83
2024/03/10 00:27:38;;;;;;;;;;;;;;;5.98;100.00;97520.28;4982924;28;19918;-81
2024/03/10 00:30:07;;;;;;;;;;;;;;;6.03;100.00;97514.75;4984458;28;19976;-82
2024/03/10 00:32:32;;;;;;;;;;;;;;;6.07;100.00;97520.66;4984495;28;19932;-81
2024/03/10 00:34:58;;;;;;;;;;;;;;;6.05;100.00;97522.50;4983254;28;19926;-85
2024/03/10 00:37:23;;;;;;;;;;;;;;;6.00;100.00;97526.28;4983374;28;19965;-85
2024/03/10 00:39:49;;;;;;;;;;;;;;;6.03;100.00;97527.03;4983303;28;20259;-83
2024/03/10 00:42:14;;;;;;;;;;;;;;;6.07;100.00;97528.53;4981252;28;19953;-89
2024/03/10 00:44:39;;;;;;;;;;;;;;;6.04;100.00;97518.22;4966146;28;19917;-86
2024/03/10 00:47:04;;;;;;;;;;;;;;;6.07;100.00;97518.84;4984372;28;19928;-86
2024/03/10 00:49:30;;;;;;;;;;;;;;;6.08;100.00;97514.44;4980696;28;19922;-83
2024/03/10 00:51:55;;;;;;;;;;;;;;;6.06;100.00;97508.44;4965002;28;19918;-84
2024/03/10 00:54:21;;;;;;;;;;;;;;;6.06;100.00;97508.44;4967337;28;19929;-84
2024/03/10 00:56:46;;;;;;;;;;;;;;;6.09;100.00;97505.63;4981849;28;20468;-86
2024/03/10 00:59:11;;;;;;;;;;;;;;;6.07;100.00;97504.88;4983164;28;20008;-88
2024/03/10 01:01:39;;;;;;;;;;;;;;;6.04;100.00;97505.06;4965093;28;19922;-86
2024/03/10 01:04:04;;;;;;;;;;;;;;;6.04;100.00;97503.25;4981983;28;20420;-88
2024/03/10 01:06:29;;;;;;;;;;;;;;;6.07;100.00;97494.34;4982554;28;19922;-85
2024/03/10 01:08:54;;;;;;;;;;;;;;;6.04;100.00;97492.75;4964866;28;19922;-86
2024/03/10 01:11:20;;;;;;;;;;;;;;;6.06;100.00;97485.59;4963810;28;20381;-82
2024/03/10 01:13:46;;;;;;;;;;;;;;;6.06;100.00;97493.50;4982847;28;19929;-89
2024/03/10 01:16:12;;;;;;;;;;;;;;;6.02;100.00;97499.91;4964952;28;20016;-88
2024/03/10 01:18:40;;;;;;;;;;;;;;;6.00;100.00;97496.53;4982169;28;20024;-91
2024/03/10 01:21:05;;;;;;;;;;;;;;;6.07;100.00;97499.63;4982062;28;19918;-87
2024/03/10 01:23:32;;;;;;;;;;;;;;;6.06;100.00;97498.75;4982378;28;19987;-87
2024/03/10 01:26:05;;;;;;;;;;;;;;;6.05;100.00;97489.19;4964111;28;19930;-85
2024/03/10 01:28:30;;;;;;;;;;;;;;;6.06;100.00;97487.41;4983989;28;19926;-86
2024/03/10 01:30:55;;;;;;;;;;;;;;;6.10;100.00;97483.66;4967166;28;19926;-86
2024/03/10 01:33:21;;;;;;;;;;;;;;;6.11;100.00;97473.06;4965650;28;20374;-83
2024/03/10 01:35:48;;;;;;;;;;;;;;;6.07;100.00;97463.66;4967945;28;19930;-79
2024/03/10 08:04:31;;;;;;;;;;;;;;;5.79;100.00;97344.41;5457277;23;20324;-83
2024/03/10 08:06:57;;;;;;;;;;;;;;;5.75;100.00;97357.84;4993161;28;19929;-86
2024/03/10 08:09:22;;;;;;;;;;;;;;;5.73;100.00;97351.84;4975377;28;19918;-86
2024/03/10 08:11:47;;;;;;;;;;;;;;;5.74;100.00;97350.88;4975674;28;19917;-86
2024/03/10 08:14:12;;;;;;;;;;;;;;;5.75;100.00;97344.69;4975417;28;19918;-86
2024/03/10 08:16:40;;;;;;;;;;;;;;;5.70;100.00;97326.59;4992894;28;19924;-86
2024/03/10 08:19:06;;;;;;;;;;;;;;;5.76;100.00;97320.09;4991101;28;19917;-87
2024/03/10 08:21:31;;;;;;;;;;;;;;;5.73;100.00;97318.53;4992610;28;19922;-86
2024/03/10 08:23:57;;;;;;;;;;;;;;;5.77;100.00;97319.16;4992945;28;20436;-88
2024/03/10 08:26:25;;;;;;;;;;;;;;;5.75;100.00;97327.16;4992761;28;19918;-87
2024/03/10 08:28:50;;;;;;;;;;;;;;;5.75;100.00;97326.31;4973756;28;20270;-85
2024/03/10 08:31:16;;;;;;;;;;;;;;;5.78;100.00;97320.88;4992692;28;19922;-83
2024/03/10 08:33:42;;;;;;;;;;;;;;;5.75;100.00;97311.38;4991312;28;19922;-83
2024/03/10 08:36:08;;;;;;;;;;;;;;;5.81;100.00;97294.41;4992883;28;19918;-83
2024/03/10 08:38:34;;;;;;;;;;;;;;;5.80;100.00;97297.94;4992575;28;19921;-84
2024/03/10 08:40:59;;;;;;;;;;;;;;;5.75;100.00;97297.41;4975203;28;19921;-85
2024/03/10 08:43:24;;;;;;;;;;;;;;;5.77;100.00;97295.50;4992541;28;19926;-82
2024/03/10 08:45:50;;;;;;;;;;;;;;;5.83;100.00;97292.50;4973216;28;19968;-83
2024/03/10 08:48:15;;;;;;;;;;;;;;;5.91;100.00;97284.13;4991274;28;19922;-83
2024/03/10 08:50:40;;;;;;;;;;;;;;;5.96;100.00;97277.66;4992580;28;19921;-82
2024/03/10 08:53:06;;;;;;;;;;;;;;;5.93;100.00;97267.31;4993412;28;19922;-82
2024/03/10 08:55:32;;;;;;;;;;;;;;;5.97;100.00;97249.63;4978938;28;19921;-82
2024/03/10 08:57:57;;;;;;;;;;;;;;;5.98;100.00;97239.00;4996722;28;19929;-82
2024/03/10 09:00:22;;;;;;;;;;;;;;;5.92;100.00;97251.63;4996314;28;19921;-83
2024/03/10 09:02:49;;;;;;;;;;;;;;;5.86;100.00;97266.03;4996529;28;19941;-84
2024/03/10 09:05:15;;;;;;;;;;;;;;;5.88;100.00;97277.28;4994936;28;19921;-82
2024/03/10 09:07:41;;;;;;;;;;;;;;;5.80;100.00;97287.44;4996305;28;19921;-84
2024/03/10 09:10:07;;;;;;;;;;;;;;;5.82;100.00;97296.06;4996180;28;19928;-82
2024/03/10 09:12:33;;;;;;;;;;;;;;;5.81;100.00;97304.91;4996204;28;19917;-82
2024/03/10 09:14:58;;;;;;;;;;;;;;;5.80;100.00;97304.03;4996127;28;19926;-81
2024/03/10 09:17:24;;;;;;;;;;;;;;;5.78;100.00;97316.44;4996150;28;19977;-82
2024/03/10 09:19:50;;;;;;;;;;;;;;;5.79;100.00;97312.03;4994098;28;20383;-82
2024/03/10 09:22:15;;;;;;;;;;;;;;;5.77;100.00;97324.41;4996104;28;20009;-82
2024/03/10 09:24:42;;;;;;;;;;;;;;;5.77;100.00;97343.66;4996001;28;19961;-86
2024/03/10 09:27:07;;;;;;;;;;;;;;;5.77;100.00;97341.03;4996224;28;19922;-83
2024/03/10 09:29:34;;;;;;;;;;;;;;;5.88;100.00;97345.63;4978408;28;19929;-82
2024/03/10 09:32:01;;;;;;;;;;;;;;;5.82;100.00;97330.22;4995777;28;19945;-82
2024/03/10 09:34:26;;;;;;;;;;;;;;;5.83;100.00;97329.28;4976839;28;19964;-82
2024/03/10 09:36:53;;;;;;;;;;;;;;;5.87;100.00;97320.28;4996054;28;19957;-83
2024/03/10 09:39:22;;;;;;;;;;;;;;;5.87;100.00;97330.81;4978315;28;19918;-82
2024/03/10 09:41:48;;;;;;;;;;;;;;;5.87;100.00;97315.03;4995505;28;19918;-82
2024/03/10 09:44:19;;;;;;;;;;;;;;;5.95;100.00;97323.28;4995669;28;20004;-82
2024/03/10 09:46:49;;;;;;;;;;;;;;;5.92;100.00;97306.84;4978145;28;20015;-83
2024/03/10 09:49:15;;;;;;;;;;;;;;;5.86;100.00;97300.19;4976837;28;19922;-82
2024/03/10 09:51:44;;;;;;;;;;;;;;;5.92;100.00;97302.44;4995364;28;19928;-78
2024/03/10 09:54:12;;;;;;;;;;;;;;;5.87;100.00;97299.28;4995426;28;19925;-83
2024/03/10 09:56:40;;;;;;;;;;;;;;;5.89;100.00;97304.41;4995313;28;19928;-83
2024/03/10 09:59:10;;;;;;;;;;;;;;;5.93;100.00;97308.53;4995774;28;20035;-83
2024/03/10 10:01:36;;;;;;;;;;;;;;;5.87;100.00;97317.66;4995353;28;20348;-84
2024/03/10 10:04:03;;;;;;;;;;;;;;;5.84;100.00;97331.00;4976994;28;20324;-83
2024/03/10 10:06:32;;;;;;;;;;;;;;;5.86;100.00;97334.38;4994594;28;19925;-83
2024/03/10 10:08:59;;;;;;;;;;;;;;;5.89;100.00;97338.56;4995292;28;19918;-83
2024/03/10 10:11:24;;;;;;;;;;;;;;;5.85;100.00;97353.69;4995241;28;19918;-83
2024/03/10 10:14:14;;;;;;;;;;;;;;;5.89;100.00;97357.81;4995216;28;19964;-83
2024/03/10 10:16:49;;;;;;;;;;;;;;;5.85;100.00;97364.19;4994928;28;19999;-83
2024/03/10 10:19:15;;;;;;;;;;;;;;;5.88;100.00;97363.19;4993098;28;20380;-83
2024/03/10 10:21:40;;;;;;;;;;;;;;;5.84;100.00;97367.78;4995016;28;20004;-83
2024/03/10 10:24:09;;;;;;;;;;;;;;;5.88;100.00;97377.16;4995077;28;20567;-84
2024/03/10 10:26:34;;;;;;;;;;;;;;;5.93;100.00;97377.72;4994935;28;19925;-83
2024/03/10 10:29:07;;;;;;;;;;;;;;;5.93;100.00;97377.72;4994857;28;19922;-83
2024/03/10 10:31:33;;;;;;;;;;;;;;;5.94;100.00;97378.56;4993459;28;19917;-84
2024/03/10 10:33:58;;;;;;;;;;;;;;;5.96;100.00;97376.69;4992901;28;20436;-85
2024/03/10 10:36:24;;;;;;;;;;;;;;;5.93;100.00;97388.22;4977258;28;19973;-86
2024/03/10 10:38:49;;;;;;;;;;;;;;;5.94;100.00;97399.59;4994675;28;19969;-84
2024/03/10 10:41:15;;;;;;;;;;;;;;;5.92;100.00;97388.31;4977292;28;20411;-84
2024/03/10 10:43:42;;;;;;;;;;;;;;;5.95;100.00;97396.00;4994615;28;19921;-84
2024/03/10 10:46:12;;;;;;;;;;;;;;;5.88;100.00;97395.56;4993934;28;20348;-84
2024/03/10 13:38:48;;;;;;;;;;;;;;;5.99;100.00;97429.94;5081555;23;20343;-86
2024/03/10 13:41:14;;;;;;;;;;;;;;;5.97;100.00;97441.50;4994866;28;19926;-85
2024/03/10 13:43:42;;;;;;;;;;;;;;;6.00;100.00;97455.28;4978374;28;19918;-88
2024/03/10 13:46:08;;;;;;;;;;;;;;;6.02;100.00;97464.88;4995742;28;20281;-89
2024/03/10 13:48:33;;;;;;;;;;;;;;;6.02;100.00;97460.47;4995919;28;19918;-90
2024/03/10 13:50:59;;;;;;;;;;;;;;;6.04;100.00;97460.38;4995827;28;19930;-86
2024/03/10 13:53:24;;;;;;;;;;;;;;;6.03;100.00;97464.78;4994347;28;20002;-85
2024/03/10 13:55:50;;;;;;;;;;;;;;;6.06;100.00;97482.13;4995430;28;20281;-85
2024/03/10 13:58:15;;;;;;;;;;;;;;;6.10;100.00;97470.50;4977952;28;20328;-89
2024/03/10 14:00:41;;;;;;;;;;;;;;;6.10;100.00;97475.78;4995567;28;19980;-88
2024/03/10 14:03:06;;;;;;;;;;;;;;;6.09;100.00;97471.44;4995324;28;19924;-88
2024/03/10 14:05:31;;;;;;;;;;;;;;;6.10;100.00;97481.03;4995502;28;19929;-85
2024/03/10 14:07:57;;;;;;;;;;;;;;;6.10;100.00;97478.41;4976434;28;19925;-86
2024/03/10 14:10:22;;;;;;;;;;;;;;;6.09;100.00;97474.91;4995321;28;19928;-84
2024/03/10 14:12:48;;;;;;;;;;;;;;;6.15;100.00;97471.91;4995036;28;19939;-83
2024/03/10 14:15:14;;;;;;;;;;;;;;;6.13;100.00;97472.94;4995122;28;20321;-83
2024/03/10 14:17:41;;;;;;;;;;;;;;;6.18;100.00;97465.63;4994875;28;20388;-85
2024/03/10 14:20:13;;;;;;;;;;;;;;;6.13;100.00;97463.28;4994943;28;19925;-85
2024/03/10 14:22:39;;;;;;;;;;;;;;;6.11;100.00;97473.06;4993590;28;19917;-84
2024/03/10 14:25:06;;;;;;;;;;;;;;;6.14;100.00;97466.72;4994915;28;19921;-84
2024/03/10 14:27:32;;;;;;;;;;;;;;;6.09;100.00;97451.25;4994951;28;19918;-85
2024/03/10 14:29:57;;;;;;;;;;;;;;;6.10;100.00;97457.38;4994762;28;20000;-84
2024/03/10 14:32:22;;;;;;;;;;;;;;;6.14;100.00;97451.81;4994914;28;19918;-85
2024/03/10 14:34:48;;;;;;;;;;;;;;;6.09;100.00;97453.88;4994640;28;19925;-86
2024/03/10 14:37:13;;;;;;;;;;;;;;;6.07;100.00;97460.19;4976006;28;20424;-85
2024/03/10 14:39:39;;;;;;;;;;;;;;;6.09;100.00;97466.19;4994539;28;19922;-85
2024/03/10 14:42:04;;;;;;;;;;;;;;;6.11;100.00;97465.16;4994360;28;19918;-85
2024/03/10 14:44:29;;;;;;;;;;;;;;;6.09;100.00;97466.19;4993156;28;19949;-85
2024/03/10 14:46:56;;;;;;;;;;;;;;;6.10;100.00;97462.63;4994373;28;19992;-82
2024/03/10 14:49:21;;;;;;;;;;;;;;;6.13;100.00;97457.19;4994384;28;20033;-84
2024/03/10 14:51:49;;;;;;;;;;;;;;;6.14;100.00;97457.09;4991605;28;20060;-85
2024/03/10 14:54:14;;;;;;;;;;;;;;;6.16;100.00;97452.56;4993375;28;19917;-85
2024/03/10 14:56:40;;;;;;;;;;;;;;;6.16;100.00;97452.56;4994147;28;19996;-83
2024/03/10 14:59:06;;;;;;;;;;;;;;;6.15;100.00;97450.03;4976614;28;19973;-84
2024/03/10 15:01:31;;;;;;;;;;;;;;;6.16;100.00;97457.81;4992994;28;19918;-83
2024/03/10 15:03:57;;;;;;;;;;;;;;;6.14;100.00;97449.19;4994222;28;20149;-85
2024/03/10 15:06:22;;;;;;;;;;;;;;;6.18;100.00;97460.38;4992943;28;19918;-86
2024/03/10 15:08:47;;;;;;;;;;;;;;;6.20;100.00;97458.47;4993163;28;19969;-84
2024/03/10 15:11:12;;;;;;;;;;;;;;;6.17;100.00;97450.78;4994109;28;20353;-85
2024/03/10 15:13:39;;;;;;;;;;;;;;;6.18;100.00;97460.38;4993948;28;19929;-84
2024/03/10 15:16:07;;;;;;;;;;;;;;;6.20;100.00;97450.59;4993689;28;20376;-85
2024/03/10 15:18:32;;;;;;;;;;;;;;;6.17;100.00;97464.78;4993872;28;19917;-85
2024/03/10 15:20:59;;;;;;;;;;;;;;;6.14;100.00;97464.09;4976141;28;20359;-88
2024/03/10 15:23:24;;;;;;;;;;;;;;;6.17;100.00;97469.19;4992517;28;19918;-91
2024/03/10 15:25:50;;;;;;;;;;;;;;;6.21;100.00;97464.56;4993609;28;19943;-84
2024/03/10 15:28:15;;;;;;;;;;;;;;;6.15;100.00;97471.06;4992515;28;19918;-86
2024/03/10 15:30:41;;;;;;;;;;;;;;;6.14;100.00;97466.72;4993625;28;19921;-84
2024/03/10 15:33:13;;;;;;;;;;;;;;;6.15;100.00;97471.06;4992817;28;19921;-86
2024/03/10 15:35:40;;;;;;;;;;;;;;;6.18;100.00;97476.13;4993180;28;19921;-84
2024/03/10 15:38:05;;;;;;;;;;;;;;;6.19;100.00;97477.84;4987823;28;19922;-86
2024/03/10 15:40:34;;;;;;;;;;;;;;;6.21;100.00;97482.97;4974145;28;19925;-89
2024/03/10 15:43:02;;;;;;;;;;;;;;;6.18;100.00;97489.28;4973601;28;19922;-86
2024/03/10 15:45:28;;;;;;;;;;;;;;;6.17;100.00;97490.22;4974325;28;20292;-81
2024/03/10 15:47:56;;;;;;;;;;;;;;;6.19;100.00;97483.09;4974030;28;20017;-84
2024/03/10 15:50:22;;;;;;;;;;;;;;;6.19;100.00;97483.09;4974047;28;19964;-91
2024/03/10 15:52:48;;;;;;;;;;;;;;;6.17;100.00;97488.44;4972788;28;20328;-85
2024/03/10 15:55:14;;;;;;;;;;;;;;;6.18;100.00;97486.66;4973783;28;19933;-81
2024/03/10 15:57:41;;;;;;;;;;;;;;;6.18;100.00;97491.91;4973398;28;19918;-89
2024/03/10 16:00:08;;;;;;;;;;;;;;;6.21;100.00;97488.22;4974001;28;19924;-88
2024/03/10 16:02:33;;;;;;;;;;;;;;;6.20;100.00;97481.31;4973557;28;19918;-89
2024/03/10 16:04:59;;;;;;;;;;;;;;;6.17;100.00;97474.44;4973703;28;20013;-86
2024/03/10 16:07:24;;;;;;;;;;;;;;;6.14;100.00;97482.50;4972516;28;19922;-86
2024/03/10 16:09:50;;;;;;;;;;;;;;;6.15;100.00;97481.59;4973704;28;19965;-83
2024/03/10 16:12:17;;;;;;;;;;;;;;;6.19;100.00;97480.47;4973617;28;19973;-90
2024/03/10 16:14:43;;;;;;;;;;;;;;;6.22;100.00;97490.78;4972194;28;20004;-90
2024/03/10 16:17:10;;;;;;;;;;;;;;;6.21;100.00;97494.34;4972304;28;20009;-86
2024/03/10 16:19:36;;;;;;;;;;;;;;;6.24;100.00;97499.44;4972664;28;19926;-89
2024/03/10 16:22:04;;;;;;;;;;;;;;;6.26;100.00;97499.34;4972557;28;20012;-92
2024/03/10 16:24:29;;;;;;;;;;;;;;;6.23;100.00;97503.00;4972687;28;20289;-87
2024/03/10 16:26:55;;;;;;;;;;;;;;;6.25;100.00;97502.91;4971371;28;19922;-88
2024/03/10 16:29:21;;;;;;;;;;;;;;;6.21;100.00;97507.50;4973141;28;20009;-88
2024/03/10 16:31:47;;;;;;;;;;;;;;;6.21;100.00;97506.63;4973377;28;20401;-85
2024/03/10 16:34:14;;;;;;;;;;;;;;;6.20;100.00;97515.50;4972484;28;20021;-89
2024/03/10 16:36:42;;;;;;;;;;;;;;;6.24;100.00;97511.72;4970881;28;20080;-89
2024/03/10 16:39:13;;;;;;;;;;;;;;;6.18;100.00;97513.78;4973084;28;19969;-90
2024/03/10 16:41:38;;;;;;;;;;;;;;;6.20;100.00;97516.31;4972504;28;19961;-85
2024/03/10 16:44:05;;;;;;;;;;;;;;;6.22;100.00;97519.69;4973318;28;20009;-83
2024/03/10 16:46:30;;;;;;;;;;;;;;;6.22;100.00;97527.59;4955864;28;19918;-87
2024/03/10 16:48:56;;;;;;;;;;;;;;;6.23;100.00;97534.53;4956115;28;19926;-84
2024/03/10 16:51:22;;;;;;;;;;;;;;;6.25;100.00;97535.28;4973231;28;20358;-89
2024/03/10 16:53:47;;;;;;;;;;;;;;;6.26;100.00;97542.25;4971763;28;20154;-89
2024/03/10 16:56:12;;;;;;;;;;;;;;;6.25;100.00;97543.19;4955668;28;19918;-89
2024/03/10 16:58:41;;;;;;;;;;;;;;;6.27;100.00;97545.72;4973137;28;20369;-89
2024/03/10 17:01:10;;;;;;;;;;;;;;;6.28;100.00;97545.63;4973056;28;19934;-86
2024/03/10 17:03:35;;;;;;;;;;;;;;;6.32;100.00;97556.81;4971251;28;19937;-86
2024/03/10 17:06:00;;;;;;;;;;;;;;;6.32;100.00;97556.81;4972819;28;19925;-92
2024/03/10 17:08:27;;;;;;;;;;;;;;;6.35;100.00;97557.47;4971938;28;19981;-89
2024/03/10 17:10:52;;;;;;;;;;;;;;;6.32;100.00;97562.94;4955687;28;19919;-89
2024/03/10 17:13:18;;;;;;;;;;;;;;;6.31;100.00;97566.47;4972956;28;19918;-89
2024/03/10 17:15:43;;;;;;;;;;;;;;;6.35;100.00;97561.88;4974721;28;19918;-92
2024/03/10 17:18:08;;;;;;;;;;;;;;;6.34;100.00;97568.09;4959360;28;19925;-92
2024/03/10 17:20:36;;;;;;;;;;;;;;;6.36;100.00;97569.66;4977007;28;19922;-90
2024/03/10 17:23:03;;;;;;;;;;;;;;;6.33;100.00;97569.03;4975606;28;19925;-92
2024/03/10 17:25:30;;;;;;;;;;;;;;;6.31;100.00;97577.00;4959632;28;19922;-89
2024/03/10 17:27:55;;;;;;;;;;;;;;;6.34;100.00;97579.44;4975733;28;19922;-88
2024/03/10 17:30:20;;;;;;;;;;;;;;;6.36;100.00;97585.44;4976526;28;19969;-90
2024/03/10 17:32:46;;;;;;;;;;;;;;;6.35;100.00;97589.03;4959390;28;20381;-89
2024/03/10 17:35:12;;;;;;;;;;;;;;;6.35;100.00;97586.41;4976427;28;20262;-90
2024/03/10 17:37:37;;;;;;;;;;;;;;;6.36;100.00;97592.50;4975058;28;19968;-90
2024/03/10 17:40:04;;;;;;;;;;;;;;;6.33;100.00;97596.19;4959060;28;19925;-93
2024/03/10 17:42:30;;;;;;;;;;;;;;;6.36;100.00;97600.41;4976644;28;19922;-89
2024/03/10 17:44:56;;;;;;;;;;;;;;;6.36;100.00;97595.97;4976507;28;20080;-94
2024/03/10 17:47:21;;;;;;;;;;;;;;;6.32;100.00;97599.75;4976436;28;19918;-90
2024/03/10 17:49:47;;;;;;;;;;;;;;;6.36;100.00;97598.59;4976405;28;20440;-88
2024/03/10 17:52:12;;;;;;;;;;;;;;;6.39;100.00;97604.63;4974728;28;19993;-86
2024/03/10 17:54:37;;;;;;;;;;;;;;;6.39;100.00;97604.63;4975221;28;20361;-85
2024/03/10 17:57:04;;;;;;;;;;;;;;;6.35;100.00;97610.09;4976672;28;20370;-91
2024/03/10 17:59:30;;;;;;;;;;;;;;;6.41;100.00;97611.47;4976531;28;19922;-91
2024/03/10 18:01:55;;;;;;;;;;;;;;;6.38;100.00;97614.28;4976006;28;19918;-88
2024/03/10 18:04:21;;;;;;;;;;;;;;;6.32;100.00;97620.78;4976077;28;19945;-92
2024/03/10 18:06:46;;;;;;;;;;;;;;;6.34;100.00;97621.53;4974834;28;19933;-90
2024/03/10 18:09:15;;;;;;;;;;;;;;;6.35;100.00;97617.13;4976025;28;19924;-86
2024/03/10 18:11:41;;;;;;;;;;;;;;;6.35;100.00;97620.59;4976037;28;19926;-91
2024/03/10 18:14:06;;;;;;;;;;;;;;;6.40;100.00;97622.09;4978675;28;20296;-89
2024/03/10 18:16:32;;;;;;;;;;;;;;;6.39;100.00;97628.31;4976332;28;19922;-93
2024/03/10 18:18:58;;;;;;;;;;;;;;;6.35;100.00;97623.25;4977767;28;19918;-89
2024/03/10 18:21:23;;;;;;;;;;;;;;;6.37;100.00;97620.53;4979753;28;20013;-84
2024/03/10 18:23:49;;;;;;;;;;;;;;;6.36;100.00;97618.81;4974534;28;20292;-86
2024/03/10 18:26:14;;;;;;;;;;;;;;;6.39;100.00;97625.69;4978849;28;19961;-94
2024/03/10 18:28:39;;;;;;;;;;;;;;;6.38;100.00;97632.72;4978918;28;19918;-94
2024/03/10 18:31:05;;;;;;;;;;;;;;;6.34;100.00;97631.22;4976599;28;19933;-94
2024/03/10 18:33:32;;;;;;;;;;;;;;;6.37;100.00;97636.31;4976738;28;19918;-91
2024/03/10 18:35:58;;;;;;;;;;;;;;;6.38;100.00;97634.50;4958544;28;19919;-88
2024/03/10 18:38:23;;;;;;;;;;;;;;;6.41;100.00;97640.41;4974184;28;19933;-84
2024/03/10 18:40:51;;;;;;;;;;;;;;;6.44;100.00;97634.13;4976663;28;19929;-86
2024/03/10 18:43:16;;;;;;;;;;;;;;;6.41;100.00;97643.06;4976228;28;19926;-85
2024/03/10 18:45:43;;;;;;;;;;;;;;;6.39;100.00;97649.34;4976467;28;19929;-91
2024/03/10 18:48:08;;;;;;;;;;;;;;;6.37;100.00;97644.19;4976858;28;20003;-85
2024/03/10 18:50:33;;;;;;;;;;;;;;;6.38;100.00;97645.03;4974513;28;19992;-84
2024/03/10 18:52:58;;;;;;;;;;;;;;;6.40;100.00;97643.16;4973976;28;19965;-84
2024/03/10 18:55:26;;;;;;;;;;;;;;;6.40;100.00;97643.16;4975885;28;19973;-88
2024/03/10 18:57:51;;;;;;;;;;;;;;;6.39;100.00;97662.50;4974759;28;19926;-86
2024/03/10 19:00:17;;;;;;;;;;;;;;;6.41;100.00;97658.00;4974914;28;19928;-82
2024/03/10 19:02:42;;;;;;;;;;;;;;;6.40;100.00;97665.06;4973771;28;19926;-83
2024/03/10 19:05:08;;;;;;;;;;;;;;;6.41;100.00;97672.00;4974826;28;19918;-82
2024/03/10 19:07:33;;;;;;;;;;;;;;;6.44;100.00;97668.34;4971460;28;20325;-81
2024/03/10 19:09:59;;;;;;;;;;;;;;;6.47;100.00;97676.88;4974995;28;19918;-82
2024/03/10 19:12:24;;;;;;;;;;;;;;;6.49;100.00;97675.03;4978128;28;19929;-93
2024/03/10 19:14:52;;;;;;;;;;;;;;;6.50;100.00;97676.72;4957967;28;20038;-84
2024/03/10 19:17:19;;;;;;;;;;;;;;;6.52;100.00;97679.25;4974676;28;20085;-79
2024/03/10 19:19:44;;;;;;;;;;;;;;;6.53;100.00;97683.59;4974980;28;19972;-88
2024/03/10 19:22:10;;;;;;;;;;;;;;;6.51;100.00;97688.94;4972792;28;20009;-85
2024/03/10 19:24:35;;;;;;;;;;;;;;;6.53;100.00;97694.09;4974400;28;20395;-82
2024/03/10 19:27:00;;;;;;;;;;;;;;;6.55;100.00;97695.69;4972866;28;19955;-79
2024/03/10 19:29:26;;;;;;;;;;;;;;;6.56;100.00;97696.56;4973568;28;19933;-80
2024/03/10 19:31:51;;;;;;;;;;;;;;;6.57;100.00;97703.50;4973534;28;19929;-91
2024/03/10 19:34:16;;;;;;;;;;;;;;;6.55;100.00;97711.47;4974431;28;19993;-81
2024/03/10 19:36:42;;;;;;;;;;;;;;;6.54;100.00;97714.19;4974183;28;20374;-80
2024/03/10 19:39:08;;;;;;;;;;;;;;;6.51;100.00;97709.13;4985596;28;19925;-81
2024/03/10 19:41:33;;;;;;;;;;;;;;;6.54;100.00;97720.34;4993381;28;19922;-77
2024/03/10 19:43:59;;;;;;;;;;;;;;;6.56;100.00;97722.88;4993601;28;19917;-82
2024/03/10 19:46:24;;;;;;;;;;;;;;;6.55;100.00;97729.06;4993986;28;19928;-92
2024/03/10 19:48:50;;;;;;;;;;;;;;;6.54;100.00;97736.13;4994027;28;19922;-90
2024/03/10 19:51:17;;;;;;;;;;;;;;;6.57;100.00;97742.13;4992242;28;19925;-85
2024/03/10 19:53:42;;;;;;;;;;;;;;;6.55;100.00;97736.97;4990413;28;19926;-80
2024/03/10 19:56:07;;;;;;;;;;;;;;;6.56;100.00;97743.91;4994272;28;19922;-85
2024/03/10 19:58:34;;;;;;;;;;;;;;;6.58;100.00;97749.09;4993553;28;19963;-80
2024/03/10 20:00:59;;;;;;;;;;;;;;;6.56;100.00;97754.44;4995475;28;19930;-85
2024/03/10 20:03:24;;;;;;;;;;;;;;;6.62;100.00;97753.22;4995236;28;19922;-82
2024/03/10 20:05:50;;;;;;;;;;;;;;;6.57;100.00;97758.75;4998042;28;20423;-81
2024/03/10 20:08:18;;;;;;;;;;;;;;;6.58;100.00;97762.25;4981734;28;19918;-81
2024/03/10 20:10:44;;;;;;;;;;;;;;;6.57;100.00;97764.00;4983566;28;19953;-81
2024/03/10 20:13:13;;;;;;;;;;;;;;;6.59;100.00;97774.44;4999584;28;20396;-87
2024/03/10 20:15:38;;;;;;;;;;;;;;;6.55;100.00;97772.00;5000866;28;19921;-89
2024/03/10 20:18:03;;;;;;;;;;;;;;;6.54;100.00;97777.34;4980037;28;20385;-91
2024/03/10 20:20:28;;;;;;;;;;;;;;;6.55;100.00;97779.06;4994320;28;20381;-83
2024/03/10 20:22:55;;;;;;;;;;;;;;;6.60;100.00;97777.00;4998141;28;19961;-83
2024/03/10 20:25:22;;;;;;;;;;;;;;;6.59;100.00;97777.94;4995170;28;20334;-82
2024/03/10 20:27:50;;;;;;;;;;;;;;;6.57;100.00;97781.59;4993267;28;19922;-84
2024/03/10 20:30:16;;;;;;;;;;;;;;;6.54;100.00;97778.22;4998135;28;20020;-84
2024/03/10 20:32:41;;;;;;;;;;;;;;;6.51;100.00;97788.06;4996397;28;19965;-92
2024/03/10 20:35:07;;;;;;;;;;;;;;;6.54;100.00;97787.88;4993835;28;20374;-84
2024/03/10 20:37:32;;;;;;;;;;;;;;;6.55;100.00;97790.41;4992968;28;19933;-94
2024/03/10 20:39:58;;;;;;;;;;;;;;;6.60;100.00;97791.94;4974648;28;19925;-89
2024/03/10 20:42:23;;;;;;;;;;;;;;;6.60;100.00;97797.22;4995239;28;19928;-88
2024/03/10 20:44:51;;;;;;;;;;;;;;;6.55;100.00;97800.09;4997893;28;19918;-84
2024/03/10 20:47:17;;;;;;;;;;;;;;;6.53;100.00;97789.66;4996101;28;19930;-84
2024/03/10 20:49:42;;;;;;;;;;;;;;;6.56;100.00;97796.56;4999959;28;19926;-90
2024/03/10 20:52:09;;;;;;;;;;;;;;;6.54;100.00;97803.66;4995318;28;19921;-89
2024/03/10 20:54:35;;;;;;;;;;;;;;;6.58;100.00;97813.09;4995292;28;19921;-90
2024/03/10 20:57:03;;;;;;;;;;;;;;;6.57;100.00;97815.81;4995445;28;20277;-84
2024/03/10 20:59:28;;;;;;;;;;;;;;;6.52;100.00;97810.81;4995655;28;19976;-85
2024/03/10 21:01:54;;;;;;;;;;;;;;;6.56;100.00;97812.34;4979608;28;20384;-88
2024/03/10 21:04:19;;;;;;;;;;;;;;;6.56;100.00;97807.06;4996582;28;19913;-84
2024/03/10 21:06:45;;;;;;;;;;;;;;;6.54;100.00;97809.78;4995014;28;20320;-89
2024/03/10 21:09:11;;;;;;;;;;;;;;;6.56;100.00;97814.97;4979009;28;19917;-84
2024/03/10 21:11:36;;;;;;;;;;;;;;;6.59;100.00;97817.44;4996360;28;19929;-85
2024/03/10 21:14:01;;;;;;;;;;;;;;;6.59;100.00;97814.78;4995953;28;19922;-87
2024/03/10 21:16:27;;;;;;;;;;;;;;;6.55;100.00;97816.72;4994986;28;19968;-85
2024/03/10 21:18:52;;;;;;;;;;;;;;;6.59;100.00;97811.28;4996161;28;19921;-85
2024/03/10 21:21:18;;;;;;;;;;;;;;;6.57;100.00;97798.22;4995921;28;19925;-88
2024/03/10 21:23:43;;;;;;;;;;;;;;;6.59;100.00;97799.00;4993224;28;20293;-85
2024/03/10 21:26:08;;;;;;;;;;;;;;;6.59;100.00;97806.91;4995874;28;19921;-83
2024/03/10 21:28:34;;;;;;;;;;;;;;;6.58;100.00;97815.72;4996009;28;19925;-81
2024/03/10 21:30:59;;;;;;;;;;;;;;;6.60;100.00;97810.38;4978424;28;20376;-82
2024/03/10 21:33:25;;;;;;;;;;;;;;;6.61;100.00;97817.34;4997211;28;19925;-88
2024/03/10 21:35:50;;;;;;;;;;;;;;;6.61;100.00;97815.53;4995975;28;19925;-84
2024/03/10 21:38:15;;;;;;;;;;;;;;;6.63;100.00;97832.09;4971918;28;20017;-86
2024/03/10 21:40:41;;;;;;;;;;;;;;;6.64;100.00;97820.63;4976364;28;19929;-81
2024/03/10 21:43:08;;;;;;;;;;;;;;;6.62;100.00;97808.50;4980586;28;19922;-89
2024/03/10 21:45:33;;;;;;;;;;;;;;;6.62;100.00;97801.47;4960217;28;19929;-87
2024/03/10 21:48:06;;;;;;;;;;;;;;;6.57;100.00;97814.00;4974384;28;19918;-89
2024/03/10 21:50:31;;;;;;;;;;;;;;;6.60;100.00;97815.63;4970241;28;19955;-94
2024/03/10 21:52:59;;;;;;;;;;;;;;;6.61;100.00;97820.81;4975181;28;19926;-88
2024/03/10 21:55:25;;;;;;;;;;;;;;;6.63;100.00;97818.09;4971843;28;19925;-84
2024/03/10 21:57:50;;;;;;;;;;;;;;;6.58;100.00;97820.97;4971399;28;19926;-90